sensor_id;sensor_type;location;lat;lon;timestamp;pressure;altitude;pressure_sealevel;temperature;humidity
21185;BME280;18176;49.502;11.754;2023-01-29T11:02:12;98011.97;;;-0.49;66.81
21185;BME280;18176;49.502;11.754;2023-01-29T11:06:20;97987.03;;;-0.61;65.62
21185;BME280;18176;49.502;11.754;2023-01-29T11:10:23;97987.16;;;-0.73;66.35
21185;BME280;18176;49.502;11.754;2023-01-29T11:14:30;97974.19;;;-0.15;65.47
21185;BME280;18176;49.502;11.754;2023-01-29T11:18:55;97955.78;;;0.15;63.05
21185;BME280;18176;49.502;11.754;2023-01-29T11:22:55;97942.34;;;0.10;62.78
21185;BME280;18176;49.502;11.754;2023-01-29T11:26:59;97929.69;;;0.34;62.01
21185;BME280;18176;49.502;11.754;2023-01-29T11:31:01;97925.78;;;0.48;61.69
21185;BME280;18176;49.502;11.754;2023-01-29T11:35:19;97915.84;;;0.61;60.48
21185;BME280;18176;49.502;11.754;2023-01-29T11:39:22;97905.19;;;0.54;60.99
21185;BME280;18176;49.502;11.754;2023-01-29T11:43:29;97900.16;;;0.70;61.15
21185;BME280;18176;49.502;11.754;2023-01-29T11:47:30;97912.88;;;1.10;59.87
21185;BME280;18176;49.502;11.754;2023-01-29T11:51:37;97891.22;;;1.71;58.64
21185;BME280;18176;49.502;11.754;2023-01-29T11:55:38;97903.75;;;2.02;56.88
21185;BME280;18176;49.502;11.754;2023-01-29T11:59:50;97893.41;;;2.01;57.45
21185;BME280;18176;49.502;11.754;2023-01-29T12:03:52;97904.59;;;1.50;57.24
21185;BME280;18176;49.502;11.754;2023-01-29T12:07:58;97902.97;;;1.49;57.54
21185;BME280;18176;49.502;11.754;2023-01-29T12:12:26;97892.22;;;1.17;58.30
21185;BME280;18176;49.502;11.754;2023-01-29T12:16:32;97888.25;;;1.48;57.86
21185;BME280;18176;49.502;11.754;2023-01-29T12:20:41;97878.31;;;1.69;57.35
21185;BME280;18176;49.502;11.754;2023-01-29T12:24:52;97876.84;;;1.49;56.88
21185;BME280;18176;49.502;11.754;2023-01-29T12:29:15;97861.47;;;1.11;58.32
21185;BME280;18176;49.502;11.754;2023-01-29T12:33:30;97832.03;;;1.18;58.56
21185;BME280;18176;49.502;11.754;2023-01-29T12:37:47;97809.09;;;1.48;56.95
21185;BME280;18176;49.502;11.754;2023-01-29T12:41:59;97765.69;;;1.47;56.26
21185;BME280;18176;49.502;11.754;2023-01-29T12:46:16;97797.03;;;2.32;55.38
21185;BME280;18176;49.502;11.754;2023-01-29T12:50:21;97814.66;;;2.63;54.59
21185;BME280;18176;49.502;11.754;2023-01-29T12:54:34;97798.66;;;2.33;54.54
21185;BME280;18176;49.502;11.754;2023-01-29T12:58:44;97804.06;;;2.31;54.67
21185;BME280;18176;49.502;11.754;2023-01-29T13:02:54;97805.16;;;2.21;55.16
21185;BME280;18176;49.502;11.754;2023-01-29T13:07:10;97807.59;;;2.14;55.29
21185;BME280;18176;49.502;11.754;2023-01-29T13:11:19;97784.78;;;1.98;55.92
21185;BME280;18176;49.502;11.754;2023-01-29T13:15:31;97796.03;;;2.25;54.98
21185;BME280;18176;49.502;11.754;2023-01-29T13:19:39;97778.44;;;1.75;55.92
21185;BME280;18176;49.502;11.754;2023-01-29T13:23:45;97793.34;;;2.17;55.80
21185;BME280;18176;49.502;11.754;2023-01-29T13:27:47;97805.09;;;2.04;55.77
21185;BME280;18176;49.502;11.754;2023-01-29T13:31:53;97785.88;;;2.22;55.38
21185;BME280;18176;49.502;11.754;2023-01-29T13:35:58;97783.63;;;2.27;55.21
21185;BME280;18176;49.502;11.754;2023-01-29T13:40:01;97796.13;;;2.49;55.65
21185;BME280;18176;49.502;11.754;2023-01-29T13:44:06;97773.25;;;2.51;54.99
21185;BME280;18176;49.502;11.754;2023-01-29T13:48:21;97804.41;;;2.78;53.68
21185;BME280;18176;49.502;11.754;2023-01-29T13:52:34;97777.84;;;2.57;54.48
21185;BME280;18176;49.502;11.754;2023-01-29T13:56:55;97783.66;;;2.35;54.74
21185;BME280;18176;49.502;11.754;2023-01-29T14:00:55;97777.72;;;2.25;55.45
21185;BME280;18176;49.502;11.754;2023-01-29T14:05:40;97763.78;;;1.82;56.27
21185;BME280;18176;49.502;11.754;2023-01-29T14:10:11;97763.31;;;1.87;56.55
21185;BME280;18176;49.502;11.754;2023-01-29T14:15:03;97748.81;;;1.92;56.56
21185;BME280;18176;49.502;11.754;2023-01-29T14:19:05;97718.03;;;1.70;56.49
21185;BME280;18176;49.502;11.754;2023-01-29T14:23:26;97767.78;;;1.94;57.02
21185;BME280;18176;49.502;11.754;2023-01-29T14:27:30;97771.88;;;1.97;57.12
21185;BME280;18176;49.502;11.754;2023-01-29T14:31:39;97744.72;;;1.90;56.43
21185;BME280;18176;49.502;11.754;2023-01-29T14:35:49;97755.47;;;1.87;57.02
21185;BME280;18176;49.502;11.754;2023-01-29T14:39:57;97756.84;;;1.65;58.10
21185;BME280;18176;49.502;11.754;2023-01-29T14:48:46;97752.81;;;1.27;58.93
21185;BME280;18176;49.502;11.754;2023-01-29T14:52:50;97742.16;;;1.21;59.41
21185;BME280;18176;49.502;11.754;2023-01-29T14:57:02;97763.78;;;1.31;59.25
21185;BME280;18176;49.502;11.754;2023-01-29T15:01:15;97758.59;;;1.39;59.27
21185;BME280;18176;49.502;11.754;2023-01-29T15:05:20;97767.75;;;0.82;60.59
21185;BME280;18176;49.502;11.754;2023-01-29T15:09:36;97754.69;;;1.00;60.99
21185;BME280;18176;49.502;11.754;2023-01-29T15:13:47;97736.25;;;0.76;60.88
21185;BME280;18176;49.502;11.754;2023-01-29T15:17:56;97755.34;;;0.49;62.02
21185;BME280;18176;49.502;11.754;2023-01-29T15:22:03;97725.00;;;0.30;62.75
21185;BME280;18176;49.502;11.754;2023-01-29T15:26:08;97739.84;;;0.30;62.91
21185;BME280;18176;49.502;11.754;2023-01-29T15:30:19;97742.09;;;0.15;63.39
21185;BME280;18176;49.502;11.754;2023-01-29T15:34:22;97739.97;;;0.01;64.06
21185;BME280;18176;49.502;11.754;2023-01-29T15:38:24;97728.25;;;-0.13;64.81
21185;BME280;18176;49.502;11.754;2023-01-29T15:42:27;97720.19;;;0.08;64.11
21185;BME280;18176;49.502;11.754;2023-01-29T15:46:34;97734.44;;;0.14;64.15
21185;BME280;18176;49.502;11.754;2023-01-29T15:50:40;97740.69;;;-0.07;63.99
21185;BME280;18176;49.502;11.754;2023-01-29T15:54:41;97740.59;;;-0.15;64.51
21185;BME280;18176;49.502;11.754;2023-01-29T15:58:46;97707.16;;;-0.46;65.21
21185;BME280;18176;49.502;11.754;2023-01-29T16:02:49;97708.09;;;-0.47;65.71
21185;BME280;18176;49.502;11.754;2023-01-29T16:06:52;97733.56;;;-0.41;65.94
21185;BME280;18176;49.502;11.754;2023-01-29T16:10:56;97719.63;;;-0.50;66.32
21185;BME280;18176;49.502;11.754;2023-01-29T16:14:57;97721.56;;;-0.61;67.18
21185;BME280;18176;49.502;11.754;2023-01-29T16:19:00;97717.44;;;-0.54;66.95
21185;BME280;18176;49.502;11.754;2023-01-29T16:23:18;97702.38;;;-0.51;66.96
21185;BME280;18176;49.502;11.754;2023-01-29T16:27:19;97701.41;;;-0.59;67.25
21185;BME280;18176;49.502;11.754;2023-01-29T16:31:26;97687.22;;;-0.75;67.53
21185;BME280;18176;49.502;11.754;2023-01-29T16:35:30;97688.19;;;-0.76;67.85
21185;BME280;18176;49.502;11.754;2023-01-29T16:39:35;97707.28;;;-0.57;67.79
21185;BME280;18176;49.502;11.754;2023-01-29T16:43:49;97663.44;;;-0.99;68.06
21185;BME280;18176;49.502;11.754;2023-01-29T16:48:00;97707.63;;;-0.70;68.52
21185;BME280;18176;49.502;11.754;2023-01-29T16:52:17;97708.72;;;-0.73;68.64
21185;BME280;18176;49.502;11.754;2023-01-29T16:56:21;97688.09;;;-0.93;68.77
21185;BME280;18176;49.502;11.754;2023-01-29T17:00:25;97702.34;;;-0.97;69.31
21185;BME280;18176;49.502;11.754;2023-01-29T17:04:27;97709.31;;;-1.07;70.36
21185;BME280;18176;49.502;11.754;2023-01-29T17:08:33;97701.41;;;-1.25;71.00
21185;BME280;18176;49.502;11.754;2023-01-29T17:12:33;97706.59;;;-1.25;71.43
21185;BME280;18176;49.502;11.754;2023-01-29T17:16:47;97702.75;;;-1.40;72.39
21185;BME280;18176;49.502;11.754;2023-01-29T17:20:49;97689.91;;;-1.51;72.70
21185;BME280;18176;49.502;11.754;2023-01-29T17:24:52;97711.25;;;-1.19;72.11
21185;BME280;18176;49.502;11.754;2023-01-29T17:28:53;97705.94;;;-1.36;72.50
21185;BME280;18176;49.502;11.754;2023-01-29T17:32:53;97709.34;;;-1.36;73.03
21185;BME280;18176;49.502;11.754;2023-01-29T17:36:53;97714.81;;;-1.39;73.49
21185;BME280;18176;49.502;11.754;2023-01-29T17:40:59;97716.72;;;-1.41;73.77
21185;BME280;18176;49.502;11.754;2023-01-29T17:45:01;97713.97;;;-1.49;74.07
21185;BME280;18176;49.502;11.754;2023-01-29T17:49:01;97717.56;;;-1.50;74.40
21185;BME280;18176;49.502;11.754;2023-01-29T17:53:03;97689.78;;;-1.59;74.08
21185;BME280;18176;49.502;11.754;2023-01-29T17:57:08;97700.84;;;-1.57;74.42
21185;BME280;18176;49.502;11.754;2023-01-29T18:01:09;97693.72;;;-1.74;74.85
21185;BME280;18176;49.502;11.754;2023-01-29T18:05:10;97678.06;;;-2.13;76.42
21185;BME280;18176;49.502;11.754;2023-01-29T18:09:14;97683.16;;;-2.01;76.48
21185;BME280;18176;49.502;11.754;2023-01-29T18:13:18;97696.44;;;-1.85;76.48
21185;BME280;18176;49.502;11.754;2023-01-29T18:17:18;97671.41;;;-1.77;75.79
21185;BME280;18176;49.502;11.754;2023-01-29T18:21:19;97689.31;;;-1.83;76.31
21185;BME280;18176;49.502;11.754;2023-01-29T18:25:20;97687.66;;;-2.03;76.42
21185;BME280;18176;49.502;11.754;2023-01-29T18:29:24;97659.16;;;-2.34;76.19
21185;BME280;18176;49.502;11.754;2023-01-29T18:33:26;97687.25;;;-2.39;76.89
21185;BME280;18176;49.502;11.754;2023-01-29T18:37:26;97699.72;;;-2.33;76.96
21185;BME280;18176;49.502;11.754;2023-01-29T18:41:27;97688.75;;;-2.46;77.54
21185;BME280;18176;49.502;11.754;2023-01-29T18:45:30;97696.69;;;-2.38;77.17
21185;BME280;18176;49.502;11.754;2023-01-29T18:49:30;97692.41;;;-2.58;77.08
21185;BME280;18176;49.502;11.754;2023-01-29T18:53:32;97713.94;;;-2.57;78.57
21185;BME280;18176;49.502;11.754;2023-01-29T18:57:32;97723.25;;;-2.55;78.35
21185;BME280;18176;49.502;11.754;2023-01-29T19:01:56;97704.09;;;-2.63;79.95
21185;BME280;18176;49.502;11.754;2023-01-29T19:05:59;97708.81;;;-2.48;80.26
21185;BME280;18176;49.502;11.754;2023-01-29T19:10:00;97715.22;;;-2.52;79.32
21185;BME280;18176;49.502;11.754;2023-01-29T19:14:02;97700.91;;;-2.76;79.14
21185;BME280;18176;49.502;11.754;2023-01-29T19:18:05;97693.00;;;-2.96;79.43
21185;BME280;18176;49.502;11.754;2023-01-29T19:22:06;97708.78;;;-2.99;80.33
21185;BME280;18176;49.502;11.754;2023-01-29T19:26:06;97715.94;;;-2.91;80.29
21185;BME280;18176;49.502;11.754;2023-01-29T19:30:09;97694.78;;;-3.17;81.03
21185;BME280;18176;49.502;11.754;2023-01-29T19:34:13;97704.38;;;-3.08;81.26
21185;BME280;18176;49.502;11.754;2023-01-29T19:38:14;97676.75;;;-3.18;81.56
21185;BME280;18176;49.502;11.754;2023-01-29T19:42:17;97710.75;;;-2.91;81.45
21185;BME280;18176;49.502;11.754;2023-01-29T19:46:17;97696.59;;;-2.87;81.47
21185;BME280;18176;49.502;11.754;2023-01-29T19:50:20;97671.59;;;-3.18;82.79
21185;BME280;18176;49.502;11.754;2023-01-29T19:54:21;97669.84;;;-3.29;82.08
21185;BME280;18176;49.502;11.754;2023-01-29T19:58:42;97637.88;;;-3.18;82.43
21185;BME280;18176;49.502;11.754;2023-01-29T20:02:45;97673.56;;;-3.01;82.33
21185;BME280;18176;49.502;11.754;2023-01-29T20:06:49;97682.16;;;-2.80;81.53
21185;BME280;18176;49.502;11.754;2023-01-29T20:10:54;97653.97;;;-2.94;81.75
21185;BME280;18176;49.502;11.754;2023-01-29T20:14:57;97598.13;;;-3.28;81.98
21185;BME280;18176;49.502;11.754;2023-01-29T20:19:17;97561.38;;;-3.64;81.71
21185;BME280;18176;49.502;11.754;2023-01-29T20:23:40;97649.56;;;-3.03;82.69
21185;BME280;18176;49.502;11.754;2023-01-29T20:27:43;97643.59;;;-2.94;82.73
21185;BME280;18176;49.502;11.754;2023-01-29T20:31:49;97565.13;;;-3.26;82.12
21185;BME280;18176;49.502;11.754;2023-01-29T20:35:58;97533.09;;;-3.56;83.25
21185;BME280;18176;49.502;11.754;2023-01-29T20:40:06;97582.69;;;-3.09;83.40
21185;BME280;18176;49.502;11.754;2023-01-29T20:44:08;97563.19;;;-3.13;82.70
21185;BME280;18176;49.502;11.754;2023-01-29T20:48:08;97571.78;;;-3.03;82.76
21185;BME280;18176;49.502;11.754;2023-01-29T20:52:10;97583.81;;;-3.02;82.49
21185;BME280;18176;49.502;11.754;2023-01-29T20:56:14;97601.63;;;-2.88;82.70
21185;BME280;18176;49.502;11.754;2023-01-29T21:00:30;97604.56;;;-3.02;83.19
21185;BME280;18176;49.502;11.754;2023-01-29T21:04:43;97536.41;;;-3.44;83.93
21185;BME280;18176;49.502;11.754;2023-01-29T21:08:47;97534.75;;;-3.54;83.11
21185;BME280;18176;49.502;11.754;2023-01-29T21:12:51;97536.13;;;-3.50;84.08
21185;BME280;18176;49.502;11.754;2023-01-29T21:16:52;97547.97;;;-3.27;84.26
21185;BME280;18176;49.502;11.754;2023-01-29T21:20:53;97598.34;;;-2.80;83.57
21185;BME280;18176;49.502;11.754;2023-01-29T21:24:53;97588.50;;;-2.87;82.73
21185;BME280;18176;49.502;11.754;2023-01-29T21:28:56;97610.38;;;-2.79;81.79
21185;BME280;18176;49.502;11.754;2023-01-29T21:32:56;97612.50;;;-2.94;81.29
21185;BME280;18176;49.502;11.754;2023-01-29T21:36:56;97605.81;;;-3.17;80.95
21185;BME280;18176;49.502;11.754;2023-01-29T21:41:01;97625.53;;;-3.05;80.79
21185;BME280;18176;49.502;11.754;2023-01-29T21:45:05;97629.28;;;-3.19;81.54
21185;BME280;18176;49.502;11.754;2023-01-29T21:49:06;97633.34;;;-3.26;81.24
21185;BME280;18176;49.502;11.754;2023-01-29T21:53:06;97616.88;;;-3.45;82.23
21185;BME280;18176;49.502;11.754;2023-01-29T21:57:12;97631.06;;;-3.40;83.30
21185;BME280;18176;49.502;11.754;2023-01-29T22:01:15;97623.66;;;-3.44;83.19
21185;BME280;18176;49.502;11.754;2023-01-29T22:05:34;97625.13;;;-3.51;81.58
21185;BME280;18176;49.502;11.754;2023-01-29T22:09:36;97623.03;;;-3.58;81.41
21185;BME280;18176;49.502;11.754;2023-01-29T22:13:36;97590.66;;;-3.84;81.29
21185;BME280;18176;49.502;11.754;2023-01-29T22:17:40;97600.34;;;-3.65;81.51
21185;BME280;18176;49.502;11.754;2023-01-29T22:21:40;97588.03;;;-3.73;83.50
21185;BME280;18176;49.502;11.754;2023-01-29T22:25:41;97592.81;;;-3.47;83.85
21185;BME280;18176;49.502;11.754;2023-01-29T22:29:41;97525.13;;;-3.64;84.88
21185;BME280;18176;49.502;11.754;2023-01-29T22:33:45;97561.22;;;-3.21;85.74
21185;BME280;18176;49.502;11.754;2023-01-29T22:37:45;97533.31;;;-3.08;85.63
21185;BME280;18176;49.502;11.754;2023-01-29T22:41:45;97538.34;;;-2.66;88.82
21185;BME280;18176;49.502;11.754;2023-01-29T22:45:45;97499.88;;;-2.52;86.89
21185;BME280;18176;49.502;11.754;2023-01-29T22:49:48;97515.88;;;-2.18;86.12
21185;BME280;18176;49.502;11.754;2023-01-29T22:53:50;97501.81;;;-2.16;85.45
21185;BME280;18176;49.502;11.754;2023-01-29T22:57:50;97492.50;;;-2.28;85.63
21185;BME280;18176;49.502;11.754;2023-01-29T23:01:51;97482.13;;;-2.08;85.51
21185;BME280;18176;49.502;11.754;2023-01-29T23:05:53;97460.53;;;-1.99;85.38
21185;BME280;18176;49.502;11.754;2023-01-29T23:09:53;97434.81;;;-1.93;85.36
21185;BME280;18176;49.502;11.754;2023-01-29T23:13:54;97413.53;;;-1.96;85.29
21185;BME280;18176;49.502;11.754;2023-01-29T23:17:54;97442.44;;;-1.72;84.71
21185;BME280;18176;49.502;11.754;2023-01-29T23:21:57;97438.03;;;-1.62;83.83
21185;BME280;18176;49.502;11.754;2023-01-29T23:25:58;97426.16;;;-1.74;83.99
21185;BME280;18176;49.502;11.754;2023-01-29T23:30:12;97417.81;;;-1.68;83.49
21185;BME280;18176;49.502;11.754;2023-01-29T23:34:13;97425.19;;;-1.64;83.92
21185;BME280;18176;49.502;11.754;2023-01-29T23:38:15;97401.09;;;-2.02;84.42
21185;BME280;18176;49.502;11.754;2023-01-29T23:42:16;97406.78;;;-1.80;83.47
21185;BME280;18176;49.502;11.754;2023-01-29T23:46:16;97415.69;;;-1.82;85.24
21185;BME280;18176;49.502;11.754;2023-01-29T23:50:17;97407.97;;;-1.74;85.99
21185;BME280;18176;49.502;11.754;2023-01-29T23:54:19;97376.94;;;-1.66;85.75
21185;BME280;18176;49.502;11.754;2023-01-29T23:58:20;97390.78;;;-1.21;84.09
